createdAt,value
2022-11-26T00:00:03.095Z,0
2022-11-26T00:05:03.076Z,0
2022-11-26T00:10:02.909Z,0
2022-11-26T00:15:03.379Z,0
2022-11-26T00:20:03.343Z,0
2022-11-26T00:25:02.750Z,0
2022-11-26T00:30:02.946Z,0
2022-11-26T00:35:02.984Z,0
2022-11-26T00:40:02.482Z,0
2022-11-26T00:45:03.209Z,0
2022-11-26T00:50:02.992Z,0
2022-11-26T00:55:03.977Z,0
2022-11-26T01:00:02.724Z,0
2022-11-26T01:05:03.094Z,0
2022-11-26T01:10:02.903Z,0
2022-11-26T01:15:02.807Z,0
2022-11-26T01:20:02.860Z,0
2022-11-26T01:25:03.371Z,0
2022-11-26T01:30:06.792Z,0
2022-11-26T01:35:02.676Z,0
2022-11-26T01:40:02.910Z,0
2022-11-26T01:45:02.596Z,0
2022-11-26T01:50:03.503Z,0
2022-11-26T01:55:04.550Z,0
2022-11-26T02:00:02.686Z,0
2022-11-26T02:05:02.661Z,0
2022-11-26T02:10:03.573Z,0
2022-11-26T02:15:02.755Z,0
2022-11-26T02:20:02.377Z,0
2022-11-26T02:25:03.126Z,0
2022-11-26T02:30:03.216Z,0
2022-11-26T02:35:02.895Z,0
2022-11-26T02:40:02.685Z,0
2022-11-26T02:45:02.904Z,0
2022-11-26T02:50:03.249Z,0
2022-11-26T02:55:03.920Z,0
2022-11-26T03:00:03.339Z,0
2022-11-26T03:05:02.824Z,0
2022-11-26T03:10:02.610Z,0
2022-11-26T03:15:03.627Z,0
2022-11-26T03:20:02.677Z,0
2022-11-26T03:25:02.657Z,0
2022-11-26T03:30:03.274Z,0
2022-11-26T03:35:02.977Z,0
2022-11-26T03:40:02.986Z,0
2022-11-26T03:45:03.419Z,0
2022-11-26T03:50:02.924Z,0
2022-11-26T03:55:03.829Z,0
2022-11-26T04:00:03.139Z,0
2022-11-26T04:05:03.127Z,0
2022-11-26T04:10:03.331Z,0
2022-11-26T04:15:02.398Z,0
2022-11-26T04:20:03.445Z,0
2022-11-26T04:25:02.845Z,0
2022-11-26T04:30:03.044Z,0
2022-11-26T04:35:03.327Z,0
2022-11-26T04:40:02.693Z,0
2022-11-26T04:45:02.806Z,0
2022-11-26T04:50:03.152Z,0
2022-11-26T04:55:03.965Z,0
2022-11-26T05:00:02.521Z,0
2022-11-26T05:05:03.183Z,0
2022-11-26T05:10:03.441Z,0
2022-11-26T05:15:02.878Z,0
2022-11-26T05:20:03.046Z,0
2022-11-26T05:25:02.644Z,0
2022-11-26T05:30:02.972Z,0
2022-11-26T05:35:02.864Z,0
2022-11-26T05:40:02.768Z,0
2022-11-26T05:45:03.043Z,0
2022-11-26T05:50:02.893Z,0
2022-11-26T05:55:04.172Z,0
2022-11-26T06:00:02.486Z,0
2022-11-26T06:05:03.293Z,0.45
2022-11-26T06:10:02.518Z,1.25
2022-11-26T06:15:03.292Z,3.51
2022-11-26T06:20:02.460Z,8.6
2022-11-26T06:25:03.437Z,10
2022-11-26T06:30:02.919Z,20
2022-11-26T06:35:03.210Z,31.67
2022-11-26T06:40:02.467Z,55
2022-11-26T06:45:02.916Z,91.67
2022-11-26T06:50:10.796Z,150
2022-11-26T06:55:04.332Z,195
2022-11-26T07:00:02.890Z,236.67
2022-11-26T07:05:02.580Z,291.67
2022-11-26T07:10:02.379Z,365
2022-11-26T07:15:03.422Z,408.33
2022-11-26T07:20:03.226Z,530
2022-11-26T07:25:02.669Z,668.33
2022-11-26T07:30:03.122Z,710
2022-11-26T07:35:02.704Z,575
2022-11-26T07:40:03.193Z,633.33
2022-11-26T07:45:02.953Z,600
2022-11-26T07:50:03.008Z,743.33
2022-11-26T07:55:13.061Z,813.33
2022-11-26T08:00:03.180Z,966.67
2022-11-26T08:05:02.732Z,1256.67
2022-11-26T08:10:02.788Z,1160
2022-11-26T08:15:03.140Z,1141.67
2022-11-26T08:20:02.667Z,951.67
2022-11-26T08:25:03.108Z,948.33
2022-11-26T08:30:03.408Z,868.33
2022-11-26T08:35:02.862Z,1150
2022-11-26T08:40:02.919Z,1380
2022-11-26T08:45:03.312Z,1491.67
2022-11-26T08:50:03.056Z,1168.33
2022-11-26T08:55:04.636Z,1508.33
2022-11-26T09:00:02.475Z,1606.67
2022-11-26T09:05:03.164Z,2738.33
2022-11-26T09:10:02.796Z,3120
2022-11-26T09:15:02.990Z,2690
2022-11-26T09:20:03.292Z,1985
2022-11-26T09:25:03.248Z,2226.67
2022-11-26T09:30:02.961Z,1578.33
2022-11-26T09:35:03.294Z,1693.33
2022-11-26T09:40:02.645Z,1753.33
2022-11-26T09:45:03.262Z,2273.33
2022-11-26T09:50:02.516Z,2523.33
2022-11-26T09:55:04.325Z,2396.67
2022-11-26T10:00:02.876Z,2590
2022-11-26T10:05:02.780Z,2286.67
2022-11-26T10:10:03.682Z,3546.67
2022-11-26T10:15:03.446Z,2631.67
2022-11-26T10:20:02.987Z,2071.67
2022-11-26T10:25:03.199Z,1615
2022-11-26T10:30:03.403Z,1456.67
2022-11-26T10:35:03.567Z,1281.67
2022-11-26T10:40:07.640Z,1468.33
2022-11-26T10:45:03.151Z,3306.67
2022-11-26T10:55:04.306Z,2243.33
2022-11-26T11:00:03.574Z,2545
2022-11-26T11:05:02.516Z,2053.33
2022-11-26T11:10:03.206Z,1355
2022-11-26T11:15:03.444Z,3098.33
2022-11-26T11:20:02.750Z,3413.33
2022-11-26T11:25:03.366Z,1946.67
2022-11-26T11:30:02.527Z,2805
2022-11-26T11:35:03.103Z,5873.33
2022-11-26T11:40:03.202Z,7103.33
2022-11-26T11:45:02.923Z,5090
2022-11-26T11:50:03.268Z,4753.33
2022-11-26T11:55:03.794Z,3716.67
2022-11-26T12:00:03.089Z,3773.33
2022-11-26T12:05:03.912Z,2915
2022-11-26T12:10:02.558Z,2671.67
2022-11-26T12:15:02.967Z,2970
2022-11-26T12:20:03.311Z,3053.33
2022-11-26T12:25:03.079Z,2670
2022-11-26T12:30:03.261Z,2986.67
2022-11-26T12:35:02.701Z,2173.33
2022-11-26T12:40:02.789Z,2010
2022-11-26T12:45:03.254Z,2651.67
2022-11-26T12:50:02.557Z,2413.33
2022-11-26T12:55:04.441Z,2276.67
2022-11-26T13:00:03.286Z,2733.33
2022-11-26T13:05:02.618Z,2755
2022-11-26T13:10:03.012Z,2665
2022-11-26T13:15:02.447Z,2650
2022-11-26T13:20:02.842Z,3190
2022-11-26T13:25:03.206Z,3030
2022-11-26T13:30:02.924Z,2531.67
2022-11-26T13:35:02.949Z,1225
2022-11-26T13:40:03.337Z,1151.67
2022-11-26T13:45:03.212Z,1375
2022-11-26T13:50:03.538Z,1506.67
2022-11-26T13:55:04.408Z,1598.33
2022-11-26T14:00:03.033Z,2000
2022-11-26T14:05:02.372Z,1361.67
2022-11-26T14:10:02.767Z,1441.67
2022-11-26T14:15:03.403Z,1143.33
2022-11-26T14:20:02.852Z,983.33
2022-11-26T14:25:03.037Z,830
2022-11-26T14:30:03.306Z,901.67
2022-11-26T14:35:02.667Z,853.33
2022-11-26T14:40:03.382Z,688.33
2022-11-26T14:45:02.874Z,518.33
2022-11-26T14:50:02.877Z,398.33
2022-11-26T14:55:04.605Z,283.33
2022-11-26T15:00:02.632Z,213.33
2022-11-26T15:05:03.296Z,181.67
2022-11-26T15:10:02.462Z,125
2022-11-26T15:15:02.750Z,73.33
2022-11-26T15:20:03.532Z,46.67
2022-11-26T15:25:02.578Z,26.67
2022-11-26T15:30:03.031Z,5
2022-11-26T15:35:03.601Z,4.64
2022-11-26T15:40:02.704Z,2.26
2022-11-26T15:45:03.113Z,0.91
2022-11-26T15:50:02.834Z,0.34
2022-11-26T15:55:16.442Z,0
2022-11-26T16:00:03.262Z,0
2022-11-26T16:05:02.868Z,0
2022-11-26T16:10:02.946Z,0
2022-11-26T16:15:03.360Z,0
2022-11-26T16:20:03.010Z,0
2022-11-26T16:25:03.128Z,0
2022-11-26T16:30:02.513Z,0
2022-11-26T16:35:45.057Z,0
2022-11-26T16:40:03.463Z,0
2022-11-26T16:50:03.055Z,0
2022-11-26T16:55:04.795Z,0
2022-11-26T17:00:02.725Z,0
2022-11-26T17:05:03.335Z,0
2022-11-26T17:10:02.505Z,0
2022-11-26T17:15:02.959Z,0
2022-11-26T17:20:04.005Z,0
2022-11-26T17:25:02.817Z,0
2022-11-26T17:30:03.260Z,0
2022-11-26T17:35:02.686Z,0
2022-11-26T17:40:03.046Z,0
2022-11-26T17:45:03.524Z,0
2022-11-26T17:50:02.588Z,0
2022-11-26T17:55:04.575Z,0
2022-11-26T18:00:02.736Z,0
2022-11-26T18:05:03.094Z,0
2022-11-26T18:10:03.212Z,0
2022-11-26T18:15:02.627Z,0
2022-11-26T18:20:03.003Z,0
2022-11-26T18:25:02.363Z,0
2022-11-26T18:30:03.128Z,0
2022-11-26T18:35:03.147Z,0
2022-11-26T18:40:02.889Z,0
2022-11-26T18:45:03.071Z,0
2022-11-26T18:50:03.298Z,0
2022-11-26T18:55:03.825Z,0
2022-11-26T19:00:03.035Z,0
2022-11-26T19:05:02.831Z,0
2022-11-26T19:10:03.252Z,0
2022-11-26T19:15:02.730Z,0
2022-11-26T19:20:02.661Z,0
2022-11-26T19:25:02.695Z,0
2022-11-26T19:30:03.155Z,0
2022-11-26T19:35:06.406Z,0
2022-11-26T19:40:03.218Z,0
2022-11-26T19:45:03.234Z,0
2022-11-26T19:50:03.118Z,0
2022-11-26T19:55:08.900Z,0
2022-11-26T20:00:02.610Z,0
2022-11-26T20:05:02.520Z,0
2022-11-26T20:10:03.499Z,0
2022-11-26T20:15:03.242Z,0
2022-11-26T20:20:02.904Z,0
2022-11-26T20:25:02.580Z,0
2022-11-26T20:30:03.276Z,0
2022-11-26T20:35:03.431Z,0
2022-11-26T20:40:03.154Z,0
2022-11-26T20:45:02.646Z,0
2022-11-26T20:50:02.885Z,0
2022-11-26T20:55:04.871Z,0
2022-11-26T21:00:02.651Z,0
2022-11-26T21:05:02.570Z,0
2022-11-26T21:10:02.544Z,0
2022-11-26T21:15:03.555Z,0
2022-11-26T21:20:03.530Z,0
2022-11-26T21:25:03.081Z,0
2022-11-26T21:30:02.653Z,0
2022-11-26T21:35:02.623Z,0
2022-11-26T21:40:03.639Z,0
2022-11-26T21:45:03.479Z,0
2022-11-26T21:50:02.990Z,0
2022-11-26T21:55:04.503Z,0
2022-11-26T22:00:03.130Z,0
2022-11-26T22:05:03.759Z,0
2022-11-26T22:10:03.629Z,0
2022-11-26T22:15:03.123Z,0
2022-11-26T22:20:03.053Z,0
2022-11-26T22:25:02.774Z,0
2022-11-26T22:30:02.795Z,0
2022-11-26T22:35:02.465Z,0
2022-11-26T22:40:03.188Z,0
2022-11-26T22:45:02.966Z,0
2022-11-26T22:50:03.099Z,0
2022-11-26T22:55:03.709Z,0
2022-11-26T23:00:02.873Z,0
2022-11-26T23:05:02.927Z,0
2022-11-26T23:10:02.668Z,0
2022-11-26T23:15:03.255Z,0
2022-11-26T23:20:03.084Z,0
2022-11-26T23:25:02.888Z,0
2022-11-26T23:30:02.539Z,0
2022-11-26T23:35:02.686Z,0
2022-11-26T23:40:03.144Z,0
2022-11-26T23:45:02.897Z,0
2022-11-26T23:50:02.900Z,0
2022-11-26T23:55:03.605Z,0
